Wetterstation Vordersexau
Wetterdaten: Woche 23.10.23 - 29.10.23 (KW43)
Datum Zeit Temp. A. Feuchte A. Luftdruck Regen Wind Richtung Taupunkt Windchill Windben
23.10.2023 00:00 17,8 C 60 % 1007,6 hPa 0,0 l/m 5,0 km/h (1 Bft) SW 9,9 C 17,8 C 6,1 km/h (2 Bft)
23.10.2023 01:00 17,8 C 56 % 1007,7 hPa 0,0 l/m 3,6 km/h (1 Bft) W-SW 8,9 C 17,8 C 7,2 km/h (2 Bft)
23.10.2023 02:00 16,4 C 57 % 1007,8 hPa 0,0 l/m 5,0 km/h (1 Bft) N 7,9 C 16,4 C 7,2 km/h (2 Bft)
23.10.2023 03:00 13,6 C 66 % 1008,3 hPa 0,0 l/m 0,0 km/h (0 Bft) N 7,4 C 13,6 C 0,0 km/h (0 Bft)
23.10.2023 04:00 11,4 C 79 % 1008,9 hPa 0,0 l/m 0,0 km/h (0 Bft) SO 7,9 C 11,4 C 0,0 km/h (0 Bft)
23.10.2023 05:00 10,9 C 84 % 1009,1 hPa 0,0 l/m 1,1 km/h (1 Bft) O-SO 8,3 C 10,9 C 3,6 km/h (1 Bft)
23.10.2023 06:00 10,2 C 87 % 1009,2 hPa 0,0 l/m 1,1 km/h (1 Bft) N 8,1 C 10,2 C 3,6 km/h (1 Bft)
23.10.2023 07:00 10,0 C 88 % 1009,8 hPa 0,0 l/m 0,0 km/h (0 Bft) N 8,1 C 10,0 C 0,0 km/h (0 Bft)
23.10.2023 08:00 9,0 C 90 % 1009,6 hPa 0,0 l/m 0,0 km/h (0 Bft) N 7,4 C 9,0 C 0,0 km/h (0 Bft)
23.10.2023 09:00 8,4 C 92 % 1009,4 hPa 0,0 l/m 0,0 km/h (0 Bft) N 7,2 C 8,4 C 0,0 km/h (0 Bft)
23.10.2023 10:00 7,8 C 93 % 1009,5 hPa 0,0 l/m 0,0 km/h (0 Bft) O-SO 6,7 C 7,8 C 2,5 km/h (1 Bft)
23.10.2023 11:00 7,3 C 93 % 1009,5 hPa 0,0 l/m 1,1 km/h (1 Bft) O-SO 6,2 C 7,3 C 3,6 km/h (1 Bft)
23.10.2023 12:00 6,4 C 95 % 1009,6 hPa 0,0 l/m 1,1 km/h (1 Bft) O-SO 5,7 C 6,4 C 2,5 km/h (1 Bft)
23.10.2023 13:00 3,2 C 48 % 1009,6 hPa 0,0 l/m 1,1 km/h (1 Bft) O-SO -27,2 C 3,2 C 19,3 km/h (3 Bft)
23.10.2023 14:00 9,1 C 93 % 1007,5 hPa 0,0 l/m 0,0 km/h (0 Bft) N 8,0 C 9,1 C 0,0 km/h (0 Bft)
23.10.2023 15:00 10,0 C 92 % 1006,6 hPa 0,0 l/m 1,1 km/h (1 Bft) N 8,8 C 10,0 C 3,6 km/h (1 Bft)
23.10.2023 16:00 12,0 C 87 % 1004,9 hPa 0,0 l/m 1,1 km/h (1 Bft) NW 9,9 C 12,0 C 2,5 km/h (1 Bft)
23.10.2023 17:00 13,0 C 86 % 1003,3 hPa 0,0 l/m 2,5 km/h (1 Bft) NW 10,7 C 13,0 C 3,6 km/h (1 Bft)
23.10.2023 18:00 11,4 C 90 % 1002,6 hPa 0,0 l/m 2,5 km/h (1 Bft) W-NW 9,8 C 11,4 C 3,6 km/h (1 Bft)
23.10.2023 19:00 10,7 C 93 % 1002,1 hPa 0,0 l/m 2,5 km/h (1 Bft) N 9,6 C 10,7 C 3,6 km/h (1 Bft)
23.10.2023 20:00 10,2 C 95 % 1002,1 hPa 0,0 l/m 0,0 km/h (0 Bft) W-NW 9,4 C 10,2 C 0,0 km/h (0 Bft)
23.10.2023 21:00 10,0 C 96 % 1003,1 hPa 0,0 l/m 2,5 km/h (1 Bft) W 9,4 C 10,0 C 3,6 km/h (1 Bft)
23.10.2023 22:00 10,1 C 97 % 1005,2 hPa 0,0 l/m 2,5 km/h (1 Bft) SO 9,6 C 10,1 C 3,6 km/h (1 Bft)
23.10.2023 23:00 10,0 C 97 % 1005,0 hPa 0,0 l/m 1,1 km/h (1 Bft) N 9,5 C 10,0 C 2,5 km/h (1 Bft)
24.10.2023 00:00 10,3 C 97 % 1003,9 hPa 0,3 l/m 0,0 km/h (0 Bft) O-NO 9,8 C 10,3 C 0,0 km/h (0 Bft)
24.10.2023 01:00 10,8 C 96 % 1003,7 hPa 0,0 l/m 1,1 km/h (1 Bft) SO 10,2 C 10,8 C 2,5 km/h (1 Bft)
24.10.2023 02:00 10,4 C 98 % 1003,9 hPa 0,0 l/m 2,5 km/h (1 Bft) N 10,1 C 10,4 C 3,6 km/h (1 Bft)
24.10.2023 03:00 10,4 C 97 % 1004,2 hPa 0,0 l/m 0,0 km/h (0 Bft) N 9,9 C 10,4 C 0,0 km/h (0 Bft)
24.10.2023 04:00 10,1 C 98 % 1003,5 hPa 0,0 l/m 0,0 km/h (0 Bft) N 9,8 C 10,1 C 0,0 km/h (0 Bft)
24.10.2023 05:00 10,1 C 99 % 1003,0 hPa 0,0 l/m 0,0 km/h (0 Bft) N 9,9 C 10,1 C 0,0 km/h (0 Bft)
24.10.2023 06:00 10,6 C 99 % 1002,8 hPa 0,0 l/m 0,0 km/h (0 Bft) N 10,4 C 10,6 C 0,0 km/h (0 Bft)
24.10.2023 07:00 10,6 C 99 % 1002,5 hPa 0,0 l/m 0,0 km/h (0 Bft) N 10,4 C 10,6 C 0,0 km/h (0 Bft)
24.10.2023 08:00 11,0 C 99 % 1002,7 hPa 0,3 l/m 0,0 km/h (0 Bft) SO 10,8 C 11,0 C 0,0 km/h (0 Bft)
24.10.2023 09:00 11,6 C 99 % 1001,6 hPa 0,6 l/m 1,1 km/h (1 Bft) N 11,4 C 11,6 C 3,6 km/h (1 Bft)
24.10.2023 10:00 11,6 C 99 % 1001,8 hPa 1,5 l/m 0,0 km/h (0 Bft) N 11,4 C 11,6 C 0,0 km/h (0 Bft)
24.10.2023 11:00 11,6 C 99 % 1002,6 hPa 0,9 l/m 0,0 km/h (0 Bft) N 11,4 C 11,6 C 0,0 km/h (0 Bft)
24.10.2023 12:00 12,0 C 99 % 1002,5 hPa 3,6 l/m 0,0 km/h (0 Bft) SO 11,8 C 12,0 C 0,0 km/h (0 Bft)
24.10.2023 13:00 12,4 C 99 % 1002,6 hPa 2,1 l/m 2,5 km/h (1 Bft) S-SW 12,2 C 12,4 C 3,6 km/h (1 Bft)
24.10.2023 14:00 12,9 C 93 % 1002,4 hPa 1,2 l/m 3,6 km/h (1 Bft) SO 11,8 C 12,9 C 6,1 km/h (2 Bft)
24.10.2023 15:00 13,2 C 93 % 1001,7 hPa 0,9 l/m 1,1 km/h (1 Bft) N 12,1 C 13,2 C 2,5 km/h (1 Bft)
24.10.2023 16:00 13,4 C 91 % 1001,2 hPa 0,0 l/m 0,0 km/h (0 Bft) S-SO 12,0 C 13,4 C 2,5 km/h (1 Bft)
24.10.2023 17:00 14,2 C 89 % 1001,0 hPa 0,0 l/m 2,5 km/h (1 Bft) SW 12,4 C 14,2 C 6,1 km/h (2 Bft)
24.10.2023 18:00 14,6 C 86 % 1000,9 hPa 0,0 l/m 6,1 km/h (2 Bft) W-SW 12,3 C 14,6 C 9,7 km/h (2 Bft)
24.10.2023 19:00 14,5 C 86 % 1000,7 hPa 0,0 l/m 2,5 km/h (1 Bft) N-NO 12,2 C 14,5 C 3,6 km/h (1 Bft)
24.10.2023 20:00 12,0 C 93 % 1001,4 hPa 0,6 l/m 1,1 km/h (1 Bft) O-SO 10,9 C 12,0 C 3,6 km/h (1 Bft)
24.10.2023 21:00 11,2 C 98 % 1001,9 hPa 3,3 l/m 6,1 km/h (2 Bft) N 10,9 C 11,2 C 9,7 km/h (2 Bft)
24.10.2023 22:00 11,2 C 99 % 1002,0 hPa 0,0 l/m 0,0 km/h (0 Bft) N 11,0 C 11,2 C 0,0 km/h (0 Bft)
24.10.2023 23:00 11,0 C 99 % 1002,1 hPa 0,0 l/m 0,0 km/h (0 Bft) N 10,8 C 11,0 C 0,0 km/h (0 Bft)
25.10.2023 00:00 10,4 C 99 % 1002,3 hPa 0,0 l/m 0,0 km/h (0 Bft) N 10,2 C 10,4 C 0,0 km/h (0 Bft)
25.10.2023 01:00 10,5 C 99 % 1002,2 hPa 0,0 l/m 0,0 km/h (0 Bft) N 10,3 C 10,5 C 0,0 km/h (0 Bft)
25.10.2023 02:00 10,3 C 99 % 1002,0 hPa 0,0 l/m 0,0 km/h (0 Bft) N 10,1 C 10,3 C 0,0 km/h (0 Bft)
25.10.2023 03:00 9,8 C 99 % 1001,6 hPa 0,0 l/m 0,0 km/h (0 Bft) N 9,7 C 9,8 C 0,0 km/h (0 Bft)
25.10.2023 04:00 9,6 C 99 % 1001,4 hPa 0,0 l/m 0,0 km/h (0 Bft) N 9,5 C 9,6 C 0,0 km/h (0 Bft)
25.10.2023 05:00 8,7 C 99 % 1001,3 hPa 0,0 l/m 0,0 km/h (0 Bft) N 8,6 C 8,7 C 2,5 km/h (1 Bft)
25.10.2023 06:00 8,7 C 99 % 1000,2 hPa 0,0 l/m 0,0 km/h (0 Bft) N 8,6 C 8,7 C 0,0 km/h (0 Bft)
25.10.2023 07:00 8,7 C 99 % 999,9 hPa 0,0 l/m 0,0 km/h (0 Bft) N 8,6 C 8,7 C 2,5 km/h (1 Bft)
25.10.2023 08:00 8,4 C 99 % 999,1 hPa 0,0 l/m 0,0 km/h (0 Bft) N 8,3 C 8,4 C 0,0 km/h (0 Bft)
25.10.2023 09:00 8,0 C 99 % 998,2 hPa 0,0 l/m 0,0 km/h (0 Bft) O-SO 7,9 C 8,0 C 0,0 km/h (0 Bft)
25.10.2023 10:00 8,6 C 99 % 997,7 hPa 0,0 l/m 1,1 km/h (1 Bft) O-SO 8,5 C 8,6 C 6,1 km/h (2 Bft)
25.10.2023 11:00 9,8 C 98 % 997,4 hPa 0,0 l/m 1,1 km/h (1 Bft) O-SO 9,5 C 9,8 C 2,5 km/h (1 Bft)
25.10.2023 12:00 11,0 C 95 % 996,7 hPa 0,0 l/m 1,1 km/h (1 Bft) O-SO 10,2 C 11,0 C 3,6 km/h (1 Bft)
25.10.2023 13:00 14,8 C 82 % 995,9 hPa 0,0 l/m 3,6 km/h (1 Bft) S-SW 11,8 C 14,8 C 6,1 km/h (2 Bft)
25.10.2023 14:00 16,0 C 74 % 995,4 hPa 0,0 l/m 5,0 km/h (1 Bft) S-SW 11,4 C 16,0 C 9,7 km/h (2 Bft)
25.10.2023 15:00 16,9 C 68 % 994,3 hPa 0,0 l/m 8,6 km/h (2 Bft) S-SW 11,0 C 15,8 C 17,3 km/h (3 Bft)
25.10.2023 16:00 14,1 C 86 % 994,2 hPa 0,3 l/m 11,2 km/h (2 Bft) S-SW 11,8 C 11,6 C 18,4 km/h (3 Bft)
25.10.2023 17:00 14,4 C 87 % 994,0 hPa 1,8 l/m 6,1 km/h (2 Bft) NW 12,3 C 14,4 C 11,2 km/h (2 Bft)
25.10.2023 18:00 13,6 C 91 % 993,2 hPa 0,6 l/m 1,1 km/h (1 Bft) S-SO 12,2 C 13,6 C 2,5 km/h (1 Bft)
25.10.2023 19:00 13,5 C 92 % 992,3 hPa 3,9 l/m 5,0 km/h (1 Bft) SW 12,2 C 13,5 C 7,2 km/h (2 Bft)
25.10.2023 20:00 13,5 C 83 % 994,2 hPa 0,6 l/m 12,2 km/h (2 Bft) W 10,7 C 10,5 C 17,3 km/h (3 Bft)
25.10.2023 21:00 13,2 C 91 % 994,7 hPa 0,3 l/m 11,2 km/h (2 Bft) S-SW 11,8 C 10,6 C 13,3 km/h (3 Bft)
25.10.2023 22:00 12,5 C 84 % 995,1 hPa 0,0 l/m 8,6 km/h (2 Bft) W 9,9 C 11,1 C 17,3 km/h (3 Bft)
25.10.2023 23:00 12,4 C 86 % 995,7 hPa 0,0 l/m 2,5 km/h (1 Bft) N 10,1 C 12,4 C 3,6 km/h (1 Bft)
26.10.2023 00:00 12,3 C 90 % 995,7 hPa 0,0 l/m 0,0 km/h (0 Bft) SW 10,7 C 12,3 C 2,5 km/h (1 Bft)
26.10.2023 01:00 13,2 C 87 % 996,0 hPa 0,0 l/m 6,1 km/h (2 Bft) W-SW 11,1 C 13,2 C 11,2 km/h (2 Bft)
26.10.2023 02:00 12,8 C 85 % 996,2 hPa 0,0 l/m 6,1 km/h (2 Bft) W-SW 10,3 C 12,8 C 11,2 km/h (2 Bft)
26.10.2023 03:00 12,7 C 87 % 996,2 hPa 0,0 l/m 2,5 km/h (1 Bft) N 10,6 C 12,7 C 6,1 km/h (2 Bft)
26.10.2023 04:00 10,8 C 94 % 995,9 hPa 0,0 l/m 0,0 km/h (0 Bft) W-SW 9,9 C 10,8 C 0,0 km/h (0 Bft)
26.10.2023 05:00 12,9 C 84 % 995,0 hPa 0,0 l/m 2,5 km/h (1 Bft) SW 10,3 C 12,9 C 3,6 km/h (1 Bft)
26.10.2023 06:00 11,6 C 97 % 995,3 hPa 1,5 l/m 2,5 km/h (1 Bft) N 11,1 C 11,6 C 3,6 km/h (1 Bft)
26.10.2023 07:00 11,5 C 98 % 994,9 hPa 1,5 l/m 0,0 km/h (0 Bft) N 11,2 C 11,5 C 0,0 km/h (0 Bft)
26.10.2023 08:00 11,4 C 99 % 994,1 hPa 0,6 l/m 0,0 km/h (0 Bft) N 11,2 C 11,4 C 2,5 km/h (1 Bft)
26.10.2023 09:00 11,5 C 99 % 993,5 hPa 1,2 l/m 0,0 km/h (0 Bft) N 11,3 C 11,5 C 0,0 km/h (0 Bft)
26.10.2023 10:00 11,9 C 99 % 993,6 hPa 0,9 l/m 0,0 km/h (0 Bft) S-SO 11,7 C 11,9 C 0,0 km/h (0 Bft)
26.10.2023 11:00 14,5 C 92 % 993,7 hPa 0,3 l/m 9,7 km/h (2 Bft) S-SW 13,2 C 12,7 C 14,8 km/h (3 Bft)
26.10.2023 12:00 15,4 C 86 % 994,6 hPa 0,0 l/m 14,8 km/h (3 Bft) W 13,1 C 11,7 C 22,0 km/h (4 Bft)
26.10.2023 13:00 16,2 C 83 % 994,6 hPa 0,0 l/m 9,7 km/h (2 Bft) S-SW 13,3 C 14,6 C 13,3 km/h (3 Bft)
26.10.2023 14:00 16,9 C 79 % 993,7 hPa 0,0 l/m 11,2 km/h (2 Bft) W 13,2 C 14,8 C 14,8 km/h (3 Bft)
26.10.2023 15:00 16,8 C 82 % 993,2 hPa 0,0 l/m 8,6 km/h (2 Bft) W-NW 13,7 C 15,7 C 14,8 km/h (3 Bft)
26.10.2023 16:00 14,6 C 95 % 993,5 hPa 2,1 l/m 11,2 km/h (2 Bft) W-SW 13,8 C 12,1 C 17,3 km/h (3 Bft)
26.10.2023 17:00 13,6 C 97 % 993,5 hPa 3,0 l/m 3,6 km/h (1 Bft) N 13,1 C 13,6 C 7,2 km/h (2 Bft)
26.10.2023 18:00 12,7 C 96 % 993,4 hPa 0,3 l/m 0,0 km/h (0 Bft) N 12,1 C 12,7 C 0,0 km/h (0 Bft)
26.10.2023 19:00 12,3 C 98 % 993,3 hPa 0,0 l/m 0,0 km/h (0 Bft) N 12,0 C 12,3 C 0,0 km/h (0 Bft)
26.10.2023 20:00 11,6 C 98 % 993,4 hPa 0,0 l/m 0,0 km/h (0 Bft) N 11,3 C 11,6 C 2,5 km/h (1 Bft)
26.10.2023 21:00 11,1 C 99 % 992,9 hPa 0,0 l/m 0,0 km/h (0 Bft) N 10,9 C 11,1 C 2,5 km/h (1 Bft)
26.10.2023 22:00 10,9 C 99 % 992,8 hPa 0,3 l/m 0,0 km/h (0 Bft) SO 10,7 C 10,9 C 0,0 km/h (0 Bft)
26.10.2023 23:00 10,3 C 99 % 992,2 hPa 1,2 l/m 2,5 km/h (1 Bft) SO 10,1 C 10,3 C 3,6 km/h (1 Bft)
27.10.2023 00:00 10,0 C 99 % 991,5 hPa 0,6 l/m 1,1 km/h (1 Bft) SO 9,8 C 10,0 C 3,6 km/h (1 Bft)
27.10.2023 01:00 9,7 C 99 % 991,4 hPa 1,2 l/m 0,0 km/h (0 Bft) N 9,6 C 9,7 C 2,5 km/h (1 Bft)
27.10.2023 02:00 9,4 C 99 % 991,7 hPa 1,8 l/m 0,0 km/h (0 Bft) N 9,3 C 9,4 C 0,0 km/h (0 Bft)
27.10.2023 03:00 9,3 C 99 % 991,4 hPa 1,5 l/m 0,0 km/h (0 Bft) N 9,2 C 9,3 C 0,0 km/h (0 Bft)
27.10.2023 04:00 9,2 C 99 % 991,1 hPa 0,9 l/m 0,0 km/h (0 Bft) N 9,1 C 9,2 C 0,0 km/h (0 Bft)
27.10.2023 05:00 9,2 C 99 % 990,4 hPa 0,6 l/m 0,0 km/h (0 Bft) N 9,1 C 9,2 C 0,0 km/h (0 Bft)
27.10.2023 06:00 9,2 C 99 % 990,2 hPa 0,0 l/m 0,0 km/h (0 Bft) W-SW 9,1 C 9,2 C 0,0 km/h (0 Bft)
27.10.2023 07:00 10,5 C 99 % 990,7 hPa 0,0 l/m 6,1 km/h (2 Bft) W 10,3 C 10,5 C 7,2 km/h (2 Bft)
27.10.2023 08:00 11,2 C 94 % 992,0 hPa 0,0 l/m 8,6 km/h (2 Bft) W 10,3 C 9,7 C 13,3 km/h (3 Bft)
27.10.2023 09:00 11,5 C 91 % 992,9 hPa 0,0 l/m 12,2 km/h (2 Bft) SW 10,1 C 8,1 C 18,4 km/h (3 Bft)
27.10.2023 10:00 11,9 C 86 % 993,7 hPa 0,0 l/m 13,3 km/h (3 Bft) W-SW 9,6 C 8,1 C 18,4 km/h (3 Bft)
27.10.2023 11:00 12,1 C 85 % 993,8 hPa 0,0 l/m 13,3 km/h (3 Bft) W-SW 9,7 C 8,4 C 22,0 km/h (4 Bft)
27.10.2023 12:00 12,2 C 87 % 994,7 hPa 0,0 l/m 13,3 km/h (3 Bft) W-SW 10,1 C 8,5 C 22,0 km/h (4 Bft)
27.10.2023 13:00 12,6 C 88 % 995,0 hPa 0,0 l/m 9,7 km/h (2 Bft) W 10,7 C 10,6 C 13,3 km/h (3 Bft)
27.10.2023 14:00 12,4 C 94 % 995,1 hPa 0,0 l/m 5,0 km/h (1 Bft) W 11,5 C 12,4 C 13,3 km/h (3 Bft)
27.10.2023 15:00 13,4 C 85 % 995,0 hPa 0,0 l/m 13,3 km/h (3 Bft) W-SW 10,9 C 9,9 C 20,9 km/h (4 Bft)
27.10.2023 16:00 13,8 C 84 % 995,1 hPa 0,0 l/m 8,6 km/h (2 Bft) W 11,1 C 12,5 C 11,2 km/h (2 Bft)
27.10.2023 17:00 15,0 C 78 % 995,2 hPa 0,0 l/m 7,2 km/h (2 Bft) SW 11,2 C 14,5 C 11,2 km/h (2 Bft)
27.10.2023 18:00 14,4 C 76 % 995,2 hPa 0,0 l/m 6,1 km/h (2 Bft) W-SW 10,2 C 14,4 C 7,2 km/h (2 Bft)
27.10.2023 19:00 12,4 C 82 % 995,1 hPa 0,0 l/m 3,6 km/h (1 Bft) N 9,4 C 12,4 C 6,1 km/h (2 Bft)
27.10.2023 20:00 11,9 C 85 % 995,0 hPa 0,0 l/m 0,0 km/h (0 Bft) N 9,5 C 11,9 C 0,0 km/h (0 Bft)
27.10.2023 21:00 11,8 C 83 % 995,3 hPa 0,0 l/m 0,0 km/h (0 Bft) N 9,0 C 11,8 C 0,0 km/h (0 Bft)
27.10.2023 22:00 11,1 C 88 % 995,3 hPa 0,0 l/m 0,0 km/h (0 Bft) S-SW 9,2 C 11,1 C 0,0 km/h (0 Bft)
27.10.2023 23:00 10,4 C 95 % 996,7 hPa 3,3 l/m 6,1 km/h (2 Bft) SW 9,6 C 10,4 C 11,2 km/h (2 Bft)
28.10.2023 00:00 10,4 C 90 % 997,6 hPa 1,2 l/m 7,2 km/h (2 Bft) S-SW 8,8 C 9,8 C 11,2 km/h (2 Bft)
28.10.2023 01:00 11,3 C 83 % 998,0 hPa 0,0 l/m 19,4 km/h (3 Bft) SW 8,5 C 5,2 C 28,1 km/h (4 Bft)
28.10.2023 02:00 11,6 C 79 % 998,2 hPa 0,0 l/m 7,2 km/h (2 Bft) W 8,1 C 11,1 C 11,2 km/h (2 Bft)
28.10.2023 03:00 11,9 C 77 % 998,6 hPa 0,0 l/m 14,8 km/h (3 Bft) W-SW 8,0 C 7,5 C 22,0 km/h (4 Bft)
28.10.2023 04:00 11,8 C 78 % 998,9 hPa 0,0 l/m 8,6 km/h (2 Bft) W 8,1 C 10,4 C 9,7 km/h (2 Bft)
28.10.2023 05:00 11,6 C 77 % 998,8 hPa 0,0 l/m 7,2 km/h (2 Bft) W 7,7 C 11,1 C 13,3 km/h (3 Bft)
28.10.2023 06:00 10,8 C 80 % 998,5 hPa 0,0 l/m 6,1 km/h (2 Bft) W-SW 7,5 C 10,8 C 9,7 km/h (2 Bft)
28.10.2023 07:00 11,4 C 77 % 998,6 hPa 0,0 l/m 6,1 km/h (2 Bft) W 7,5 C 11,4 C 7,2 km/h (2 Bft)
28.10.2023 08:00 11,6 C 75 % 998,5 hPa 0,0 l/m 5,0 km/h (1 Bft) W 7,3 C 11,6 C 7,2 km/h (2 Bft)
28.10.2023 09:00 10,7 C 80 % 998,9 hPa 0,0 l/m 1,1 km/h (1 Bft) W 7,4 C 10,7 C 3,6 km/h (1 Bft)
28.10.2023 10:00 12,6 C 74 % 999,3 hPa 0,0 l/m 3,6 km/h (1 Bft) W 8,1 C 12,6 C 6,1 km/h (2 Bft)
28.10.2023 11:00 13,3 C 72 % 999,7 hPa 0,0 l/m 5,0 km/h (1 Bft) W 8,4 C 13,3 C 6,1 km/h (2 Bft)
28.10.2023 12:00 14,3 C 67 % 999,7 hPa 0,0 l/m 3,6 km/h (1 Bft) S 8,3 C 14,3 C 6,1 km/h (2 Bft)
28.10.2023 13:00 15,6 C 65 % 999,7 hPa 0,0 l/m 5,0 km/h (1 Bft) W-SW 9,0 C 15,6 C 6,1 km/h (2 Bft)
28.10.2023 14:00 15,3 C 65 % 999,4 hPa 0,0 l/m 9,7 km/h (2 Bft) W-SW 8,8 C 13,6 C 14,8 km/h (3 Bft)
28.10.2023 15:00 16,0 C 66 % 998,7 hPa 0,0 l/m 11,2 km/h (2 Bft) W 9,7 C 13,7 C 14,8 km/h (3 Bft)
28.10.2023 16:00 15,1 C 68 % 998,7 hPa 0,0 l/m 2,5 km/h (1 Bft) W-SW 9,2 C 15,1 C 3,6 km/h (1 Bft)
28.10.2023 17:00 14,1 C 81 % 999,2 hPa 0,0 l/m 1,1 km/h (1 Bft) SW 10,9 C 14,1 C 2,5 km/h (1 Bft)
28.10.2023 18:00 13,8 C 80 % 999,0 hPa 0,0 l/m 1,1 km/h (1 Bft) N 10,4 C 13,8 C 2,5 km/h (1 Bft)
28.10.2023 19:00 12,4 C 85 % 999,1 hPa 0,0 l/m 0,0 km/h (0 Bft) N 9,9 C 12,4 C 2,5 km/h (1 Bft)
28.10.2023 20:00 11,9 C 87 % 999,1 hPa 0,0 l/m 0,0 km/h (0 Bft) N 9,8 C 11,9 C 0,0 km/h (0 Bft)
28.10.2023 21:00 11,6 C 87 % 998,8 hPa 0,0 l/m 0,0 km/h (0 Bft) S-SO 9,5 C 11,6 C 2,5 km/h (1 Bft)
28.10.2023 22:00 12,7 C 77 % 998,6 hPa 0,0 l/m 1,1 km/h (1 Bft) S-SO 8,8 C 12,7 C 2,5 km/h (1 Bft)
28.10.2023 23:00 11,5 C 86 % 998,0 hPa 0,0 l/m 1,1 km/h (1 Bft) S-SO 9,2 C 11,5 C 2,5 km/h (1 Bft)
29.10.2023 00:00 11,4 C 85 % 998,1 hPa 0,0 l/m 2,5 km/h (1 Bft) SO 9,0 C 11,4 C 3,6 km/h (1 Bft)
29.10.2023 01:00 11,0 C 87 % 997,8 hPa 0,0 l/m 3,6 km/h (1 Bft) O-SO 8,9 C 11,0 C 6,1 km/h (2 Bft)
29.10.2023 02:00 11,1 C 85 % 997,8 hPa 0,0 l/m 0,6 km/h (0 Bft) N 8,7 C 11,1 C 2,5 km/h (1 Bft)
29.10.2023 03:00 10,5 C 87 % 997,0 hPa 0,0 l/m 0,0 km/h (0 Bft) O-SO 8,4 C 10,5 C 0,0 km/h (0 Bft)
29.10.2023 04:00 10,6 C 86 % 996,6 hPa 0,0 l/m 2,5 km/h (1 Bft) O-SO 8,4 C 10,6 C 6,1 km/h (2 Bft)
29.10.2023 05:00 10,7 C 85 % 996,4 hPa 0,0 l/m 3,6 km/h (1 Bft) N 8,3 C 10,7 C 3,6 km/h (1 Bft)
29.10.2023 06:00 10,3 C 87 % 996,1 hPa 0,0 l/m 0,0 km/h (0 Bft) SO 8,2 C 10,3 C 0,0 km/h (0 Bft)
29.10.2023 07:00 10,5 C 87 % 996,2 hPa 0,0 l/m 1,1 km/h (1 Bft) N 8,4 C 10,5 C 6,1 km/h (2 Bft)
29.10.2023 08:00 10,6 C 89 % 997,3 hPa 0,0 l/m 0,0 km/h (0 Bft) SO 8,9 C 10,6 C 0,0 km/h (0 Bft)
29.10.2023 09:00 12,3 C 84 % 997,7 hPa 0,0 l/m 1,1 km/h (1 Bft) SO 9,7 C 12,3 C 2,5 km/h (1 Bft)
29.10.2023 10:00 12,8 C 89 % 997,4 hPa 0,0 l/m 3,6 km/h (1 Bft) SO 11,0 C 12,8 C 6,1 km/h (2 Bft)
29.10.2023 11:00 18,9 C 56 % 996,9 hPa 0,0 l/m 5,0 km/h (1 Bft) SW 9,9 C 18,9 C 9,7 km/h (2 Bft)
29.10.2023 12:00 20,0 C 52 % 997,0 hPa 0,0 l/m 6,1 km/h (2 Bft) S-SW 9,8 C 20,0 C 9,7 km/h (2 Bft)
29.10.2023 13:00 20,7 C 48 % 996,8 hPa 0,0 l/m 8,6 km/h (2 Bft) S-SW 9,3 C 19,9 C 17,3 km/h (3 Bft)
29.10.2023 14:00 21,3 C 45 % 996,4 hPa 0,0 l/m 7,2 km/h (2 Bft) W 8,9 C 21,0 C 13,3 km/h (3 Bft)
29.10.2023 15:00 20,2 C 55 % 996,6 hPa 0,0 l/m 2,5 km/h (1 Bft) N 10,9 C 20,2 C 3,6 km/h (1 Bft)
29.10.2023 16:00 19,5 C 63 % 996,0 hPa 0,0 l/m 0,0 km/h (0 Bft) SW 12,3 C 19,5 C 0,0 km/h (0 Bft)
29.10.2023 17:00 17,8 C 74 % 995,9 hPa 0,0 l/m 2,5 km/h (1 Bft) W-SW 13,1 C 17,8 C 3,6 km/h (1 Bft)
29.10.2023 18:00 16,1 C 79 % 996,8 hPa 0,0 l/m 1,1 km/h (1 Bft) N 12,5 C 16,1 C 2,5 km/h (1 Bft)
29.10.2023 19:00 15,1 C 83 % 998,1 hPa 0,0 l/m 0,0 km/h (0 Bft) N 12,2 C 15,1 C 0,0 km/h (0 Bft)
29.10.2023 20:00 15,3 C 83 % 999,6 hPa 0,0 l/m 0,0 km/h (0 Bft) N 12,4 C 15,3 C 0,0 km/h (0 Bft)
29.10.2023 21:00 14,1 C 90 % 1000,1 hPa 0,0 l/m 0,0 km/h (0 Bft) O 12,5 C 14,1 C 0,0 km/h (0 Bft)
29.10.2023 22:00 13,6 C 93 % 1000,0 hPa 0,0 l/m 5,0 km/h (1 Bft) N-NO 12,5 C 13,6 C 7,2 km/h (2 Bft)
29.10.2023 23:00 13,7 C 92 % 1000,5 hPa 0,0 l/m 1,1 km/h (1 Bft) N 12,4 C 13,7 C 2,5 km/h (1 Bft)
Min-Datum _ 23.10.23 23.10.23 27.10.23 - 23.10.23 - 23.10.23 23.10.23 23.10.23
_ Min-Zeit 13:13 13:13 06:13 - 03:08 - 13:13 13:13 03:08
Minimum _ 0,0 C 0 % 990,2 hPa - 0,0 km/h (0 Bft) - -60,0 C 0,0 C 0,0 km/h (0 Bft)
Max-Datum _ 29.10.23 24.10.23 23.10.23 25.10.23 28.10.23 - 26.10.23 29.10.23 23.10.23
_ Max-Zeit 14:13 05:13 07:08 19:13 01:13 - 16:13 14:13 13:13
Maximum _ 21,3 C 99 % 1009,8 hPa 3,9 l/m 19,4 km/h
SW (3 Bft)
- 13,8 C 21,0 C 36,0 km/h
O-SO (5 Bft)
Durchschnitt _ 12,2 C 87 % 998,7 hPa #46,8 l/m 3,3 km/h (1 Bft) W 9,8 C 11,8 C 5,6 km/h (1 Bft)
www.sexauwetter.de